sensor_id;sensor_type;location;lat;lon;timestamp;temperature;humidity
26414;DHT22;14108;53.668;10.288;2022-12-17T00:00:20;2.00;70.20
26414;DHT22;14108;53.668;10.288;2022-12-17T00:03:09;2.00;70.40
26414;DHT22;14108;53.668;10.288;2022-12-17T00:05:55;2.00;70.30
26414;DHT22;14108;53.668;10.288;2022-12-17T00:08:40;2.00;71.10
26414;DHT22;14108;53.668;10.288;2022-12-17T00:11:25;1.90;70.30
26414;DHT22;14108;53.668;10.288;2022-12-17T00:14:11;1.90;70.40
26414;DHT22;14108;53.668;10.288;2022-12-17T00:16:56;1.90;70.50
26414;DHT22;14108;53.668;10.288;2022-12-17T00:19:41;1.90;70.30
26414;DHT22;14108;53.668;10.288;2022-12-17T00:22:27;1.90;70.30
26414;DHT22;14108;53.668;10.288;2022-12-17T00:25:12;1.90;70.30
26414;DHT22;14108;53.668;10.288;2022-12-17T00:27:57;1.90;70.20
26414;DHT22;14108;53.668;10.288;2022-12-17T00:30:42;1.90;70.30
26414;DHT22;14108;53.668;10.288;2022-12-17T00:33:27;1.90;70.10
26414;DHT22;14108;53.668;10.288;2022-12-17T00:36:13;1.90;70.10
26414;DHT22;14108;53.668;10.288;2022-12-17T00:38:58;1.90;70.00
26414;DHT22;14108;53.668;10.288;2022-12-17T00:41:43;1.90;69.90
26414;DHT22;14108;53.668;10.288;2022-12-17T00:44:29;1.80;69.80
26414;DHT22;14108;53.668;10.288;2022-12-17T00:47:14;1.80;69.40
26414;DHT22;14108;53.668;10.288;2022-12-17T00:49:59;1.80;70.00
26414;DHT22;14108;53.668;10.288;2022-12-17T00:52:44;1.70;70.10
26414;DHT22;14108;53.668;10.288;2022-12-17T00:55:30;1.70;70.90
26414;DHT22;14108;53.668;10.288;2022-12-17T00:58:15;1.70;70.00
26414;DHT22;14108;53.668;10.288;2022-12-17T01:01:13;1.70;70.00
26414;DHT22;14108;53.668;10.288;2022-12-17T01:03:59;1.70;70.20
26414;DHT22;14108;53.668;10.288;2022-12-17T01:06:44;1.70;70.30
26414;DHT22;14108;53.668;10.288;2022-12-17T01:09:30;1.70;70.40
26414;DHT22;14108;53.668;10.288;2022-12-17T01:12:15;1.70;70.70
26414;DHT22;14108;53.668;10.288;2022-12-17T01:15:00;1.70;70.90
26414;DHT22;14108;53.668;10.288;2022-12-17T01:17:45;1.60;70.90
26414;DHT22;14108;53.668;10.288;2022-12-17T01:20:31;1.60;70.90
26414;DHT22;14108;53.668;10.288;2022-12-17T01:23:18;1.60;70.80
26414;DHT22;14108;53.668;10.288;2022-12-17T01:26:03;1.70;70.70
26414;DHT22;14108;53.668;10.288;2022-12-17T01:28:49;1.70;70.70
26414;DHT22;14108;53.668;10.288;2022-12-17T01:31:34;1.70;70.70
26414;DHT22;14108;53.668;10.288;2022-12-17T01:34:19;1.70;70.70
26414;DHT22;14108;53.668;10.288;2022-12-17T01:37:05;1.70;70.80
26414;DHT22;14108;53.668;10.288;2022-12-17T01:39:50;1.70;70.80
26414;DHT22;14108;53.668;10.288;2022-12-17T01:42:40;1.70;70.80
26414;DHT22;14108;53.668;10.288;2022-12-17T01:45:30;1.70;70.80
26414;DHT22;14108;53.668;10.288;2022-12-17T01:48:17;1.80;70.90
26414;DHT22;14108;53.668;10.288;2022-12-17T01:51:03;1.80;70.90
26414;DHT22;14108;53.668;10.288;2022-12-17T01:53:51;1.80;71.00
26414;DHT22;14108;53.668;10.288;2022-12-17T01:56:38;1.80;71.10
26414;DHT22;14108;53.668;10.288;2022-12-17T01:59:27;1.80;71.00
26414;DHT22;14108;53.668;10.288;2022-12-17T02:02:16;1.80;70.80
26414;DHT22;14108;53.668;10.288;2022-12-17T02:05:01;1.90;70.70
26414;DHT22;14108;53.668;10.288;2022-12-17T02:07:55;1.90;70.60
26414;DHT22;14108;53.668;10.288;2022-12-17T02:10:51;1.80;70.40
26414;DHT22;14108;53.668;10.288;2022-12-17T02:13:43;1.80;70.40
26414;DHT22;14108;53.668;10.288;2022-12-17T02:16:35;1.80;70.50
26414;DHT22;14108;53.668;10.288;2022-12-17T02:19:33;1.70;70.50
26414;DHT22;14108;53.668;10.288;2022-12-17T02:22:25;1.70;70.70
26414;DHT22;14108;53.668;10.288;2022-12-17T02:25:20;1.70;70.80
26414;DHT22;14108;53.668;10.288;2022-12-17T02:28:07;1.70;70.70
26414;DHT22;14108;53.668;10.288;2022-12-17T02:30:53;1.70;70.70
26414;DHT22;14108;53.668;10.288;2022-12-17T02:33:49;1.60;70.70
26414;DHT22;14108;53.668;10.288;2022-12-17T02:36:35;1.60;70.80
26414;DHT22;14108;53.668;10.288;2022-12-17T02:39:21;1.60;70.50
26414;DHT22;14108;53.668;10.288;2022-12-17T02:42:07;1.60;70.50
26414;DHT22;14108;53.668;10.288;2022-12-17T02:44:53;1.50;70.40
26414;DHT22;14108;53.668;10.288;2022-12-17T02:47:50;1.50;70.40
26414;DHT22;14108;53.668;10.288;2022-12-17T02:50:36;1.50;70.20
26414;DHT22;14108;53.668;10.288;2022-12-17T02:55:58;1.40;70.00
26414;DHT22;14108;53.668;10.288;2022-12-17T02:58:44;1.40;70.00
26414;DHT22;14108;53.668;10.288;2022-12-17T03:01:29;1.40;69.90
26414;DHT22;14108;53.668;10.288;2022-12-17T03:04:14;1.40;69.90
26414;DHT22;14108;53.668;10.288;2022-12-17T03:06:59;1.30;69.70
26414;DHT22;14108;53.668;10.288;2022-12-17T03:09:45;1.30;69.80
26414;DHT22;14108;53.668;10.288;2022-12-17T03:12:30;1.20;69.70
26414;DHT22;14108;53.668;10.288;2022-12-17T03:18:10;1.20;69.80
26414;DHT22;14108;53.668;10.288;2022-12-17T03:20:56;0.70;71.00
26414;DHT22;14108;53.668;10.288;2022-12-17T03:23:48;1.00;70.90
26414;DHT22;14108;53.668;10.288;2022-12-17T03:26:34;1.10;69.90
26414;DHT22;14108;53.668;10.288;2022-12-17T03:29:19;1.10;69.40
26414;DHT22;14108;53.668;10.288;2022-12-17T03:34:59;1.10;69.20
26414;DHT22;14108;53.668;10.288;2022-12-17T03:37:44;0.60;70.20
26414;DHT22;14108;53.668;10.288;2022-12-17T03:40:30;0.90;70.10
26414;DHT22;14108;53.668;10.288;2022-12-17T03:43:15;0.90;69.30
26414;DHT22;14108;53.668;10.288;2022-12-17T03:46:00;0.90;68.90
26414;DHT22;14108;53.668;10.288;2022-12-17T03:48:45;0.90;68.90
26414;DHT22;14108;53.668;10.288;2022-12-17T03:51:31;0.90;68.40
26414;DHT22;14108;53.668;10.288;2022-12-17T03:54:16;0.80;68.30
26414;DHT22;14108;53.668;10.288;2022-12-17T03:57:01;0.80;68.40
26414;DHT22;14108;53.668;10.288;2022-12-17T03:59:46;0.80;68.30
26414;DHT22;14108;53.668;10.288;2022-12-17T04:02:32;0.70;68.30
26414;DHT22;14108;53.668;10.288;2022-12-17T04:05:17;0.70;68.30
26414;DHT22;14108;53.668;10.288;2022-12-17T04:08:02;0.70;68.30
26414;DHT22;14108;53.668;10.288;2022-12-17T04:10:48;0.60;68.30
26414;DHT22;14108;53.668;10.288;2022-12-17T04:13:33;0.60;68.40
26414;DHT22;14108;53.668;10.288;2022-12-17T04:16:18;0.50;68.40
26414;DHT22;14108;53.668;10.288;2022-12-17T04:19:03;0.50;68.40
26414;DHT22;14108;53.668;10.288;2022-12-17T04:21:49;0.40;68.40
26414;DHT22;14108;53.668;10.288;2022-12-17T04:24:34;0.40;68.50
26414;DHT22;14108;53.668;10.288;2022-12-17T04:27:19;0.40;68.50
26414;DHT22;14108;53.668;10.288;2022-12-17T04:30:07;0.40;68.70
26414;DHT22;14108;53.668;10.288;2022-12-17T04:32:52;0.40;69.30
26414;DHT22;14108;53.668;10.288;2022-12-17T04:35:37;0.40;68.60
26414;DHT22;14108;53.668;10.288;2022-12-17T04:38:23;0.40;68.60
26414;DHT22;14108;53.668;10.288;2022-12-17T04:41:10;0.30;69.60
26414;DHT22;14108;53.668;10.288;2022-12-17T04:43:55;0.30;68.90
26414;DHT22;14108;53.668;10.288;2022-12-17T04:46:40;0.30;69.00
26414;DHT22;14108;53.668;10.288;2022-12-17T04:49:26;0.20;69.10
26414;DHT22;14108;53.668;10.288;2022-12-17T04:52:11;0.20;69.10
26414;DHT22;14108;53.668;10.288;2022-12-17T04:54:56;0.20;69.10
26414;DHT22;14108;53.668;10.288;2022-12-17T04:57:42;0.20;69.10
26414;DHT22;14108;53.668;10.288;2022-12-17T05:00:27;0.20;69.20
26414;DHT22;14108;53.668;10.288;2022-12-17T05:03:13;0.10;69.30
26414;DHT22;14108;53.668;10.288;2022-12-17T05:05:59;0.10;69.40
26414;DHT22;14108;53.668;10.288;2022-12-17T05:08:45;0.10;69.50
26414;DHT22;14108;53.668;10.288;2022-12-17T05:14:25;0.10;69.70
26414;DHT22;14108;53.668;10.288;2022-12-17T05:17:11;-0.30;70.50
26414;DHT22;14108;53.668;10.288;2022-12-17T05:19:56;0.00;70.50
26414;DHT22;14108;53.668;10.288;2022-12-17T05:22:41;0.10;69.90
26414;DHT22;14108;53.668;10.288;2022-12-17T05:25:40;0.10;69.30
26414;DHT22;14108;53.668;10.288;2022-12-17T05:28:26;0.10;69.10
26414;DHT22;14108;53.668;10.288;2022-12-17T05:31:24;0.10;68.80
26414;DHT22;14108;53.668;10.288;2022-12-17T05:34:10;0.00;68.60
26414;DHT22;14108;53.668;10.288;2022-12-17T05:36:55;0.00;68.60
26414;DHT22;14108;53.668;10.288;2022-12-17T05:39:40;0.00;68.60
26414;DHT22;14108;53.668;10.288;2022-12-17T05:42:26;0.00;68.70
26414;DHT22;14108;53.668;10.288;2022-12-17T05:45:11;0.00;68.90
26414;DHT22;14108;53.668;10.288;2022-12-17T05:50:32;-0.10;69.20
26414;DHT22;14108;53.668;10.288;2022-12-17T05:53:18;-0.10;69.60
26414;DHT22;14108;53.668;10.288;2022-12-17T05:56:04;-0.10;69.70
26414;DHT22;14108;53.668;10.288;2022-12-17T05:58:49;-0.20;69.70
26414;DHT22;14108;53.668;10.288;2022-12-17T06:01:34;-0.20;69.80
26414;DHT22;14108;53.668;10.288;2022-12-17T06:04:19;-0.20;69.80
26414;DHT22;14108;53.668;10.288;2022-12-17T06:07:05;-0.20;70.00
26414;DHT22;14108;53.668;10.288;2022-12-17T06:09:50;-0.20;70.00
26414;DHT22;14108;53.668;10.288;2022-12-17T06:12:35;-0.20;70.00
26414;DHT22;14108;53.668;10.288;2022-12-17T06:15:21;-0.20;70.80
26414;DHT22;14108;53.668;10.288;2022-12-17T06:18:07;-0.20;70.00
26414;DHT22;14108;53.668;10.288;2022-12-17T06:20:52;-0.20;69.90
26414;DHT22;14108;53.668;10.288;2022-12-17T06:23:38;-0.20;69.90
26414;DHT22;14108;53.668;10.288;2022-12-17T06:26:23;-0.20;70.00
26414;DHT22;14108;53.668;10.288;2022-12-17T06:31:47;-0.20;70.10
26414;DHT22;14108;53.668;10.288;2022-12-17T06:34:33;-0.20;70.20
26414;DHT22;14108;53.668;10.288;2022-12-17T06:37:18;-0.20;70.20
26414;DHT22;14108;53.668;10.288;2022-12-17T06:40:14;-0.20;70.20
26414;DHT22;14108;53.668;10.288;2022-12-17T06:42:59;-0.20;70.00
26414;DHT22;14108;53.668;10.288;2022-12-17T06:45:45;-0.30;69.90
26414;DHT22;14108;53.668;10.288;2022-12-17T06:51:05;-0.30;69.90
26414;DHT22;14108;53.668;10.288;2022-12-17T06:53:51;-0.70;70.60
26414;DHT22;14108;53.668;10.288;2022-12-17T06:56:36;-0.40;70.70
26414;DHT22;14108;53.668;10.288;2022-12-17T06:59:22;-0.30;70.00
26414;DHT22;14108;53.668;10.288;2022-12-17T07:02:09;-0.30;70.40
26414;DHT22;14108;53.668;10.288;2022-12-17T07:07:57;-0.30;69.60
26414;DHT22;14108;53.668;10.288;2022-12-17T07:10:43;-0.70;70.60
26414;DHT22;14108;53.668;10.288;2022-12-17T07:13:28;-0.40;70.60
26414;DHT22;14108;53.668;10.288;2022-12-17T07:16:13;-0.30;70.10
26414;DHT22;14108;53.668;10.288;2022-12-17T07:18:59;-0.30;69.80
26414;DHT22;14108;53.668;10.288;2022-12-17T07:21:44;-0.30;69.70
26414;DHT22;14108;53.668;10.288;2022-12-17T07:24:29;-0.30;69.70
26414;DHT22;14108;53.668;10.288;2022-12-17T07:27:15;-0.30;69.80
26414;DHT22;14108;53.668;10.288;2022-12-17T07:32:36;-0.30;70.00
26414;DHT22;14108;53.668;10.288;2022-12-17T07:35:21;-0.30;70.20
26414;DHT22;14108;53.668;10.288;2022-12-17T07:38:09;-0.30;70.20
26414;DHT22;14108;53.668;10.288;2022-12-17T07:40:55;-0.30;70.20
26414;DHT22;14108;53.668;10.288;2022-12-17T07:43:40;-0.30;70.30
26414;DHT22;14108;53.668;10.288;2022-12-17T07:46:25;-0.30;70.30
26414;DHT22;14108;53.668;10.288;2022-12-17T07:49:11;-0.30;70.40
26414;DHT22;14108;53.668;10.288;2022-12-17T07:51:56;-0.30;70.50
26414;DHT22;14108;53.668;10.288;2022-12-17T07:54:44;-0.30;70.30
26414;DHT22;14108;53.668;10.288;2022-12-17T07:57:30;-0.30;70.40
26414;DHT22;14108;53.668;10.288;2022-12-17T08:00:15;-0.30;70.60
26414;DHT22;14108;53.668;10.288;2022-12-17T08:03:01;-0.30;70.40
26414;DHT22;14108;53.668;10.288;2022-12-17T08:05:47;-0.30;70.40
26414;DHT22;14108;53.668;10.288;2022-12-17T08:08:32;-0.30;70.50
26414;DHT22;14108;53.668;10.288;2022-12-17T08:11:17;-0.30;70.60
26414;DHT22;14108;53.668;10.288;2022-12-17T08:14:02;-0.30;70.70
26414;DHT22;14108;53.668;10.288;2022-12-17T08:16:48;-0.30;70.90
26414;DHT22;14108;53.668;10.288;2022-12-17T08:19:33;-0.30;70.90
26414;DHT22;14108;53.668;10.288;2022-12-17T08:22:18;-0.30;71.00
26414;DHT22;14108;53.668;10.288;2022-12-17T08:25:05;-0.30;71.10
26414;DHT22;14108;53.668;10.288;2022-12-17T08:27:55;-0.30;71.20
26414;DHT22;14108;53.668;10.288;2022-12-17T08:30:42;-0.30;71.20
26414;DHT22;14108;53.668;10.288;2022-12-17T08:33:27;-0.20;71.40
26414;DHT22;14108;53.668;10.288;2022-12-17T08:36:19;-0.20;71.40
26414;DHT22;14108;53.668;10.288;2022-12-17T08:39:05;-0.10;71.50
26414;DHT22;14108;53.668;10.288;2022-12-17T08:41:50;-0.10;71.60
26414;DHT22;14108;53.668;10.288;2022-12-17T08:44:35;-0.10;71.60
26414;DHT22;14108;53.668;10.288;2022-12-17T08:47:20;0.00;71.80
26414;DHT22;14108;53.668;10.288;2022-12-17T08:50:13;0.00;71.80
26414;DHT22;14108;53.668;10.288;2022-12-17T08:52:58;0.00;72.00
26414;DHT22;14108;53.668;10.288;2022-12-17T08:55:44;0.00;72.10
26414;DHT22;14108;53.668;10.288;2022-12-17T08:58:29;0.00;72.20
26414;DHT22;14108;53.668;10.288;2022-12-17T09:01:14;0.00;72.20
26414;DHT22;14108;53.668;10.288;2022-12-17T09:04:00;0.00;72.10
26414;DHT22;14108;53.668;10.288;2022-12-17T09:06:45;0.00;72.20
26414;DHT22;14108;53.668;10.288;2022-12-17T09:09:31;0.10;72.30
26414;DHT22;14108;53.668;10.288;2022-12-17T09:12:16;0.10;72.30
26414;DHT22;14108;53.668;10.288;2022-12-17T09:15:01;0.10;72.60
26414;DHT22;14108;53.668;10.288;2022-12-17T09:17:47;0.10;72.70
26414;DHT22;14108;53.668;10.288;2022-12-17T09:20:32;0.20;72.70
26414;DHT22;14108;53.668;10.288;2022-12-17T09:23:18;0.10;72.70
26414;DHT22;14108;53.668;10.288;2022-12-17T09:26:03;0.10;72.70
26414;DHT22;14108;53.668;10.288;2022-12-17T09:28:49;0.20;72.80
26414;DHT22;14108;53.668;10.288;2022-12-17T09:31:34;0.20;72.70
26414;DHT22;14108;53.668;10.288;2022-12-17T09:34:20;0.20;72.80
26414;DHT22;14108;53.668;10.288;2022-12-17T09:37:05;0.20;72.90
26414;DHT22;14108;53.668;10.288;2022-12-17T09:39:50;0.30;73.00
26414;DHT22;14108;53.668;10.288;2022-12-17T09:42:42;0.30;73.10
26414;DHT22;14108;53.668;10.288;2022-12-17T09:45:30;0.30;73.30
26414;DHT22;14108;53.668;10.288;2022-12-17T09:48:37;0.40;73.40
26414;DHT22;14108;53.668;10.288;2022-12-17T09:51:26;0.40;73.20
26414;DHT22;14108;53.668;10.288;2022-12-17T09:54:18;0.40;73.40
26414;DHT22;14108;53.668;10.288;2022-12-17T09:57:04;0.40;73.60
26414;DHT22;14108;53.668;10.288;2022-12-17T09:59:50;0.40;73.70
26414;DHT22;14108;53.668;10.288;2022-12-17T10:02:43;0.40;73.80
26414;DHT22;14108;53.668;10.288;2022-12-17T10:05:30;0.50;73.90
26414;DHT22;14108;53.668;10.288;2022-12-17T10:08:19;0.50;73.90
26414;DHT22;14108;53.668;10.288;2022-12-17T10:11:13;0.50;73.90
26414;DHT22;14108;53.668;10.288;2022-12-17T10:14:02;0.50;74.10
26414;DHT22;14108;53.668;10.288;2022-12-17T10:16:48;0.60;74.20
26414;DHT22;14108;53.668;10.288;2022-12-17T10:19:36;0.60;74.20
26414;DHT22;14108;53.668;10.288;2022-12-17T10:22:23;0.60;74.20
26414;DHT22;14108;53.668;10.288;2022-12-17T10:27:50;0.70;74.20
26414;DHT22;14108;53.668;10.288;2022-12-17T10:30:36;0.70;74.30
26414;DHT22;14108;53.668;10.288;2022-12-17T10:33:21;0.80;74.10
26414;DHT22;14108;53.668;10.288;2022-12-17T10:36:20;0.80;74.20
26414;DHT22;14108;53.668;10.288;2022-12-17T10:39:11;0.80;74.30
26414;DHT22;14108;53.668;10.288;2022-12-17T10:42:20;0.80;74.90
26414;DHT22;14108;53.668;10.288;2022-12-17T10:45:21;0.80;74.30
26414;DHT22;14108;53.668;10.288;2022-12-17T10:48:18;0.80;74.90
26414;DHT22;14108;53.668;10.288;2022-12-17T10:51:05;0.90;74.50
26414;DHT22;14108;53.668;10.288;2022-12-17T10:54:08;0.90;74.50
26414;DHT22;14108;53.668;10.288;2022-12-17T10:56:57;0.90;75.30
26414;DHT22;14108;53.668;10.288;2022-12-17T10:59:43;0.90;74.50
26414;DHT22;14108;53.668;10.288;2022-12-17T11:02:31;0.90;74.40
26414;DHT22;14108;53.668;10.288;2022-12-17T11:05:24;0.90;74.70
26414;DHT22;14108;53.668;10.288;2022-12-17T11:08:12;0.90;74.80
26414;DHT22;14108;53.668;10.288;2022-12-17T11:11:05;1.00;74.90
26414;DHT22;14108;53.668;10.288;2022-12-17T11:13:55;1.00;74.80
26414;DHT22;14108;53.668;10.288;2022-12-17T11:16:45;1.00;74.90
26414;DHT22;14108;53.668;10.288;2022-12-17T11:19:39;1.10;74.90
26414;DHT22;14108;53.668;10.288;2022-12-17T11:22:34;1.10;74.70
26414;DHT22;14108;53.668;10.288;2022-12-17T11:25:28;1.10;74.80
26414;DHT22;14108;53.668;10.288;2022-12-17T11:28:22;1.10;74.80
26414;DHT22;14108;53.668;10.288;2022-12-17T11:31:26;1.20;74.90
26414;DHT22;14108;53.668;10.288;2022-12-17T11:34:29;1.20;74.80
26414;DHT22;14108;53.668;10.288;2022-12-17T11:37:20;1.20;74.70
26414;DHT22;14108;53.668;10.288;2022-12-17T11:40:15;1.30;74.70
26414;DHT22;14108;53.668;10.288;2022-12-17T11:43:14;1.30;74.70
26414;DHT22;14108;53.668;10.288;2022-12-17T11:46:08;1.30;74.80
26414;DHT22;14108;53.668;10.288;2022-12-17T11:48:55;1.30;74.80
26414;DHT22;14108;53.668;10.288;2022-12-17T11:51:49;1.40;74.70
26414;DHT22;14108;53.668;10.288;2022-12-17T11:54:40;1.30;74.20
26414;DHT22;14108;53.668;10.288;2022-12-17T11:57:33;1.40;74.40
26414;DHT22;14108;53.668;10.288;2022-12-17T12:00:24;1.40;74.50
26414;DHT22;14108;53.668;10.288;2022-12-17T12:06:12;1.30;74.60
26414;DHT22;14108;53.668;10.288;2022-12-17T12:09:11;1.40;74.90
26414;DHT22;14108;53.668;10.288;2022-12-17T12:12:03;1.40;74.80
26414;DHT22;14108;53.668;10.288;2022-12-17T12:14:56;1.50;74.80
26414;DHT22;14108;53.668;10.288;2022-12-17T12:17:51;1.50;74.50
26414;DHT22;14108;53.668;10.288;2022-12-17T12:20:51;1.50;74.50
26414;DHT22;14108;53.668;10.288;2022-12-17T12:23:47;1.60;74.90
26414;DHT22;14108;53.668;10.288;2022-12-17T12:26:39;1.60;75.30
26414;DHT22;14108;53.668;10.288;2022-12-17T12:29:32;1.60;74.50
26414;DHT22;14108;53.668;10.288;2022-12-17T12:32:23;1.60;74.20
26414;DHT22;14108;53.668;10.288;2022-12-17T12:35:15;1.60;74.70
26414;DHT22;14108;53.668;10.288;2022-12-17T12:38:02;1.70;74.10
26414;DHT22;14108;53.668;10.288;2022-12-17T12:40:54;1.70;74.20
26414;DHT22;14108;53.668;10.288;2022-12-17T12:43:44;1.70;74.10
26414;DHT22;14108;53.668;10.288;2022-12-17T12:46:37;1.70;74.10
26414;DHT22;14108;53.668;10.288;2022-12-17T12:49:27;1.70;74.10
26414;DHT22;14108;53.668;10.288;2022-12-17T12:52:20;1.80;74.20
26414;DHT22;14108;53.668;10.288;2022-12-17T12:55:07;1.80;74.10
26414;DHT22;14108;53.668;10.288;2022-12-17T12:57:57;1.90;73.90
26414;DHT22;14108;53.668;10.288;2022-12-17T13:00:53;1.90;73.60
26414;DHT22;14108;53.668;10.288;2022-12-17T13:03:39;2.00;73.50
26414;DHT22;14108;53.668;10.288;2022-12-17T13:06:45;2.00;73.50
26414;DHT22;14108;53.668;10.288;2022-12-17T13:09:30;2.00;73.40
26414;DHT22;14108;53.668;10.288;2022-12-17T13:15:09;2.00;73.10
26414;DHT22;14108;53.668;10.288;2022-12-17T13:17:44;2.10;73.00
26414;DHT22;14108;53.668;10.288;2022-12-17T13:20:24;2.10;72.90
26414;DHT22;14108;53.668;10.288;2022-12-17T13:22:53;2.10;72.70
26414;DHT22;14108;53.668;10.288;2022-12-17T13:25:30;2.10;72.70
26414;DHT22;14108;53.668;10.288;2022-12-17T13:27:57;2.10;72.70
26414;DHT22;14108;53.668;10.288;2022-12-17T13:30:33;2.20;72.70
26414;DHT22;14108;53.668;10.288;2022-12-17T13:33:14;2.20;72.60
26414;DHT22;14108;53.668;10.288;2022-12-17T13:35:53;2.30;72.30
26414;DHT22;14108;53.668;10.288;2022-12-17T13:38:26;2.30;72.10
26414;DHT22;14108;53.668;10.288;2022-12-17T13:41:05;2.30;72.10
26414;DHT22;14108;53.668;10.288;2022-12-17T13:43:38;2.30;71.80
26414;DHT22;14108;53.668;10.288;2022-12-17T13:46:05;2.40;71.60
26414;DHT22;14108;53.668;10.288;2022-12-17T13:48:33;2.40;71.40
26414;DHT22;14108;53.668;10.288;2022-12-17T13:51:02;2.30;71.30
26414;DHT22;14108;53.668;10.288;2022-12-17T13:53:30;2.30;71.10
26414;DHT22;14108;53.668;10.288;2022-12-17T13:56:00;2.30;71.20
26414;DHT22;14108;53.668;10.288;2022-12-17T13:58:28;2.30;71.10
26414;DHT22;14108;53.668;10.288;2022-12-17T14:01:07;2.40;71.10
26414;DHT22;14108;53.668;10.288;2022-12-17T14:03:35;2.40;71.00
26414;DHT22;14108;53.668;10.288;2022-12-17T14:06:03;2.40;70.80
26414;DHT22;14108;53.668;10.288;2022-12-17T14:08:32;2.40;70.80
26414;DHT22;14108;53.668;10.288;2022-12-17T14:11:00;2.40;70.50
26414;DHT22;14108;53.668;10.288;2022-12-17T14:13:48;2.40;70.40
26414;DHT22;14108;53.668;10.288;2022-12-17T14:16:16;2.40;70.30
26414;DHT22;14108;53.668;10.288;2022-12-17T14:18:49;2.40;70.30
26414;DHT22;14108;53.668;10.288;2022-12-17T14:21:18;2.40;70.30
26414;DHT22;14108;53.668;10.288;2022-12-17T14:23:48;2.40;70.20
26414;DHT22;14108;53.668;10.288;2022-12-17T14:26:17;2.40;70.10
26414;DHT22;14108;53.668;10.288;2022-12-17T14:28:47;2.30;69.90
26414;DHT22;14108;53.668;10.288;2022-12-17T14:31:20;2.30;69.90
26414;DHT22;14108;53.668;10.288;2022-12-17T14:33:59;2.30;70.00
26414;DHT22;14108;53.668;10.288;2022-12-17T14:36:28;2.30;70.00
26414;DHT22;14108;53.668;10.288;2022-12-17T14:38:57;2.30;70.00
26414;DHT22;14108;53.668;10.288;2022-12-17T14:41:25;2.30;69.90
26414;DHT22;14108;53.668;10.288;2022-12-17T14:47:07;2.30;69.80
26414;DHT22;14108;53.668;10.288;2022-12-17T14:49:45;2.30;69.70
26414;DHT22;14108;53.668;10.288;2022-12-17T14:52:26;2.30;69.60
26414;DHT22;14108;53.668;10.288;2022-12-17T14:54:56;2.20;69.50
26414;DHT22;14108;53.668;10.288;2022-12-17T14:57:24;2.20;70.20
26414;DHT22;14108;53.668;10.288;2022-12-17T14:59:51;2.20;69.40
26414;DHT22;14108;53.668;10.288;2022-12-17T15:02:21;2.20;69.50
26414;DHT22;14108;53.668;10.288;2022-12-17T15:04:50;2.20;69.60
26414;DHT22;14108;53.668;10.288;2022-12-17T15:07:22;2.20;69.60
26414;DHT22;14108;53.668;10.288;2022-12-17T15:09:50;2.10;69.50
26414;DHT22;14108;53.668;10.288;2022-12-17T15:12:19;2.10;69.40
26414;DHT22;14108;53.668;10.288;2022-12-17T15:14:46;2.10;69.40
26414;DHT22;14108;53.668;10.288;2022-12-17T15:17:14;2.10;69.50
26414;DHT22;14108;53.668;10.288;2022-12-17T15:19:41;2.10;69.50
26414;DHT22;14108;53.668;10.288;2022-12-17T15:22:13;2.10;69.40
26414;DHT22;14108;53.668;10.288;2022-12-17T15:24:42;2.10;69.30
26414;DHT22;14108;53.668;10.288;2022-12-17T15:27:12;2.00;69.20
26414;DHT22;14108;53.668;10.288;2022-12-17T15:29:39;2.00;69.20
26414;DHT22;14108;53.668;10.288;2022-12-17T15:32:07;2.00;69.30
26414;DHT22;14108;53.668;10.288;2022-12-17T15:34:34;2.00;69.30
26414;DHT22;14108;53.668;10.288;2022-12-17T15:37:01;2.00;69.30
26414;DHT22;14108;53.668;10.288;2022-12-17T15:39:28;1.90;69.30
26414;DHT22;14108;53.668;10.288;2022-12-17T15:41:55;1.90;69.40
26414;DHT22;14108;53.668;10.288;2022-12-17T15:44:41;1.90;69.40
26414;DHT22;14108;53.668;10.288;2022-12-17T15:47:08;1.80;69.30
26414;DHT22;14108;53.668;10.288;2022-12-17T15:49:35;1.80;69.40
26414;DHT22;14108;53.668;10.288;2022-12-17T15:52:02;1.80;69.50
26414;DHT22;14108;53.668;10.288;2022-12-17T15:54:29;1.70;69.40
26414;DHT22;14108;53.668;10.288;2022-12-17T15:56:56;1.70;69.40
26414;DHT22;14108;53.668;10.288;2022-12-17T15:59:24;1.70;69.50
26414;DHT22;14108;53.668;10.288;2022-12-17T16:01:51;1.70;69.40
26414;DHT22;14108;53.668;10.288;2022-12-17T16:04:18;1.70;69.50
26414;DHT22;14108;53.668;10.288;2022-12-17T16:06:45;1.70;70.10
26414;DHT22;14108;53.668;10.288;2022-12-17T16:09:12;1.80;71.30
26414;DHT22;14108;53.668;10.288;2022-12-17T16:11:39;1.80;72.00
26414;DHT22;14108;53.668;10.288;2022-12-17T16:14:07;1.90;72.30
26414;DHT22;14108;53.668;10.288;2022-12-17T16:16:34;2.00;71.70
26414;DHT22;14108;53.668;10.288;2022-12-17T16:19:01;2.00;70.70
26414;DHT22;14108;53.668;10.288;2022-12-17T16:21:28;2.00;69.90
26414;DHT22;14108;53.668;10.288;2022-12-17T16:26:32;2.00;69.00
26414;DHT22;14108;53.668;10.288;2022-12-17T16:28:59;2.00;68.80
26414;DHT22;14108;53.668;10.288;2022-12-17T16:31:26;1.90;68.60
26414;DHT22;14108;53.668;10.288;2022-12-17T16:33:53;1.90;69.40
26414;DHT22;14108;53.668;10.288;2022-12-17T16:36:21;1.90;68.50
26414;DHT22;14108;53.668;10.288;2022-12-17T16:38:49;1.90;68.50
26414;DHT22;14108;53.668;10.288;2022-12-17T16:41:18;1.90;68.40
26414;DHT22;14108;53.668;10.288;2022-12-17T16:43:46;1.90;68.30
26414;DHT22;14108;53.668;10.288;2022-12-17T16:46:25;1.80;68.30
26414;DHT22;14108;53.668;10.288;2022-12-17T16:48:53;1.80;68.30
26414;DHT22;14108;53.668;10.288;2022-12-17T16:51:23;1.80;68.40
26414;DHT22;14108;53.668;10.288;2022-12-17T16:53:51;1.80;68.40
26414;DHT22;14108;53.668;10.288;2022-12-17T16:56:20;1.70;68.50
26414;DHT22;14108;53.668;10.288;2022-12-17T16:58:48;1.70;68.50
26414;DHT22;14108;53.668;10.288;2022-12-17T17:01:18;1.70;68.70
26414;DHT22;14108;53.668;10.288;2022-12-17T17:03:46;1.70;68.70
26414;DHT22;14108;53.668;10.288;2022-12-17T17:06:13;1.70;68.70
26414;DHT22;14108;53.668;10.288;2022-12-17T17:08:40;1.70;68.70
26414;DHT22;14108;53.668;10.288;2022-12-17T17:11:09;1.70;68.80
26414;DHT22;14108;53.668;10.288;2022-12-17T17:13:37;1.60;68.70
26414;DHT22;14108;53.668;10.288;2022-12-17T17:16:06;1.60;68.70
26414;DHT22;14108;53.668;10.288;2022-12-17T17:18:34;1.60;68.80
26414;DHT22;14108;53.668;10.288;2022-12-17T17:21:19;1.60;68.80
26414;DHT22;14108;53.668;10.288;2022-12-17T17:23:50;1.60;68.80
26414;DHT22;14108;53.668;10.288;2022-12-17T17:26:19;1.50;68.70
26414;DHT22;14108;53.668;10.288;2022-12-17T17:28:47;1.50;68.70
26414;DHT22;14108;53.668;10.288;2022-12-17T17:31:16;1.50;68.80
26414;DHT22;14108;53.668;10.288;2022-12-17T17:33:45;1.40;68.70
26414;DHT22;14108;53.668;10.288;2022-12-17T17:36:15;1.40;68.80
26414;DHT22;14108;53.668;10.288;2022-12-17T17:38:43;1.40;68.90
26414;DHT22;14108;53.668;10.288;2022-12-17T17:41:12;1.40;68.90
26414;DHT22;14108;53.668;10.288;2022-12-17T17:43:40;1.40;69.00